Time;durP1;ratioP1;P1;durP2;ratioP2;P2;SDS_P1;SDS_P2;PMS_P1;PMS_P2;Temp;Humidity;BMP_temperature;BMP_pressure;BME280_temperature;BME280_humidity;BME280_pressure;Samples;Min_cycle;Max_cycle;Signal;HPM_P1;HPM_P2
2024/01/18 00:01:50;;;;;;;;;;;11.50;40.30;;;11.69;42.92;98297.13;5031167;28;19932;-38
2024/01/18 00:04:17;;;;;;;;;;;11.50;40.20;;;11.67;43.31;98298.63;5031900;28;19925;-39
2024/01/18 00:06:46;;;;;;;;;;;11.50;40.30;;;11.65;42.72;98301.00;5031499;28;19925;-38
2024/01/18 00:09:14;;;;;;;;;;;11.50;40.30;;;11.67;43.26;98298.63;5031556;28;19980;-38
2024/01/18 00:11:42;;;;;;;;;;;11.50;40.20;;;11.67;43.66;98298.63;5031727;28;19925;-37
2024/01/18 00:14:11;;;;;;;;;;;11.50;40.30;;;11.63;43.46;98296.59;5031504;28;20292;-38
2024/01/18 00:16:39;;;;;;;;;;;11.50;40.20;;;11.65;42.63;98315.16;5031800;28;19987;-36
2024/01/18 00:19:09;;;;;;;;;;;11.50;40.20;;;11.70;43.21;98334.00;5031675;28;20016;-36
2024/01/18 00:21:37;;;;;;;;;;;11.50;40.20;;;11.66;43.72;98326.94;5031318;28;20305;-37
2024/01/18 00:24:05;;;;;;;;;;;11.50;40.20;;;11.73;42.61;98334.28;5031357;28;20427;-36
2024/01/18 00:26:33;;;;;;;;;;;11.50;40.20;;;11.70;42.86;98336.50;5031631;28;20529;-36
2024/01/18 00:29:01;;;;;;;;;;;11.50;40.20;;;11.72;42.96;98332.50;5031558;28;19925;-36
2024/01/18 00:31:30;;;;;;;;;;;11.50;40.20;;;11.70;42.92;98334.00;5031226;28;19925;-37
2024/01/18 00:33:58;;;;;;;;;;;11.50;40.20;;;11.68;43.72;98335.50;5031313;28;19972;-37
2024/01/18 00:36:27;;;;;;;;;;;11.50;40.20;;;11.73;43.41;98351.84;5031348;28;20372;-36
2024/01/18 00:38:55;;;;;;;;;;;11.60;40.30;;;11.71;43.29;98355.81;5031240;28;20087;-36
2024/01/18 00:41:24;;;;;;;;;;;11.60;40.20;;;11.72;43.24;98367.63;5030665;28;19925;-36
2024/01/18 00:43:52;;;;;;;;;;;11.60;40.20;;;11.72;42.97;98377.66;5031549;28;20016;-37
2024/01/18 00:46:21;;;;;;;;;;;11.60;40.30;;;11.73;43.14;98376.91;5033154;28;19997;-36
2024/01/18 00:48:50;;;;;;;;;;;11.60;40.30;;;11.71;42.95;98380.91;5035078;28;19979;-37
2024/01/18 00:51:18;;;;;;;;;;;11.60;40.30;;;11.71;43.74;98380.91;5034473;28;19929;-39
2024/01/18 00:53:46;;;;;;;;;;;11.50;40.20;;;11.72;42.97;98380.16;5034671;28;19956;-39
2024/01/18 00:56:14;;;;;;;;;;;11.60;40.30;;;11.75;43.23;98387.13;5027152;28;20028;-39
2024/01/18 00:58:42;;;;;;;;;;;11.60;40.20;;;11.72;42.78;98387.69;5034968;28;20274;-37
2024/01/18 01:01:10;;;;;;;;;;;11.60;40.20;;;11.73;42.77;98396.97;5034378;28;19987;-36
2024/01/18 01:03:38;;;;;;;;;;;11.60;40.20;;;11.71;42.79;98395.97;5034767;28;19940;-38
2024/01/18 01:06:10;;;;;;;;;;;11.60;40.20;;;11.67;43.19;98393.94;5034655;28;19925;-37
2024/01/18 01:08:38;;;;;;;;;;;11.60;40.20;;;11.69;42.61;98393.34;5034753;28;19979;-36
2024/01/18 01:11:08;;;;;;;;;;;11.50;40.20;;;11.70;43.49;98405.09;5031673;28;19925;-39
2024/01/18 01:13:36;;;;;;;;;;;11.50;40.20;;;11.72;43.16;98395.22;5034725;28;19979;-39
2024/01/18 01:16:05;;;;;;;;;;;11.60;40.30;;;11.70;42.70;98390.06;5034357;28;20016;-40
2024/01/18 01:18:33;;;;;;;;;;;11.60;40.30;;;11.71;43.46;98405.97;5034477;28;19991;-39
2024/01/18 01:21:01;;;;;;;;;;;11.60;40.30;;;11.70;42.95;98411.75;5033549;28;19933;-39
2024/01/18 01:23:30;;;;;;;;;;;11.50;40.10;;;11.70;42.96;98409.22;5034542;28;20015;-40
2024/01/18 01:25:58;;;;;;;;;;;11.50;40.20;;;11.70;43.47;98419.28;5034542;28;20277;-41
2024/01/18 01:28:26;;;;;;;;;;;11.50;40.20;;;11.69;43.10;98417.53;5034288;28;19925;-40
2024/01/18 01:30:54;;;;;;;;;;;11.50;40.20;;;11.67;43.19;98419.00;5033265;28;20130;-40
2024/01/18 01:33:22;;;;;;;;;;;11.50;40.30;;;11.68;42.63;98420.78;5033831;28;19996;-39
2024/01/18 01:35:50;;;;;;;;;;;11.50;40.30;;;11.66;43.29;98427.28;5033851;28;20373;-38
2024/01/18 01:38:18;;;;;;;;;;;11.50;40.30;;;11.61;43.07;98433.50;5033989;28;20452;-39
2024/01/18 01:40:47;;;;;;;;;;;11.50;40.30;;;11.63;43.29;98439.56;5033360;28;20012;-39
2024/01/18 01:43:16;;;;;;;;;;;11.50;40.30;;;11.66;43.13;98452.34;5025851;28;19929;-38
2024/01/18 01:45:44;;;;;;;;;;;11.50;40.20;;;11.65;43.19;98450.59;5034170;28;20124;-39
2024/01/18 01:48:12;;;;;;;;;;;11.50;40.30;;;11.61;42.64;98453.56;5033463;28;19935;-39
2024/01/18 01:50:41;;;;;;;;;;;11.50;40.30;;;11.68;43.12;98458.41;5033284;28;20308;-41
2024/01/18 01:53:08;;;;;;;;;;;11.50;40.30;;;11.66;43.20;98452.34;5033533;28;20350;-40
2024/01/18 01:55:36;;;;;;;;;;;11.50;40.30;;;11.64;43.12;98456.34;5033571;28;19929;-40
2024/01/18 01:58:06;;;;;;;;;;;11.50;40.30;;;11.65;43.13;98450.59;5033505;28;20027;-38
2024/01/18 02:00:34;;;;;;;;;;;11.50;40.30;;;11.67;43.38;98449.09;5032854;28;20021;-38
2024/01/18 02:03:02;;;;;;;;;;;11.50;40.30;;;11.61;43.17;98449.44;5033639;28;19925;-39
2024/01/18 02:05:30;;;;;;;;;;;11.50;40.30;;;11.69;42.80;98472.72;5033271;28;20297;-39
2024/01/18 02:07:58;;;;;;;;;;;11.50;40.20;;;11.67;42.51;98480.09;5033520;28;19932;-40
2024/01/18 02:10:26;;;;;;;;;;;11.50;40.20;;;11.65;43.00;98478.19;5033288;28;19976;-39
2024/01/18 02:12:54;;;;;;;;;;;11.50;40.20;;;11.66;42.52;98477.44;5033088;28;19979;-39
2024/01/18 02:15:23;;;;;;;;;;;11.50;40.20;;;11.64;43.01;98448.81;5033250;28;20047;-39
2024/01/18 02:17:51;;;;;;;;;;;11.50;40.20;;;11.67;43.08;98455.00;5034072;28;20436;-35
2024/01/18 02:20:19;;;;;;;;;;;11.50;40.20;;;11.67;43.29;98449.09;5025368;28;19925;-35
2024/01/18 02:22:47;;;;;;;;;;;11.50;40.20;;;11.68;43.40;98445.88;5032786;28;19971;-35
2024/01/18 02:25:21;;;;;;;;;;;11.50;40.20;;;11.73;43.00;98454.69;5032977;28;19983;-35
2024/01/18 02:27:49;;;;;;;;;;;11.50;40.20;;;11.68;43.46;98465.94;5032996;28;19979;-36
2024/01/18 02:30:17;;;;;;;;;;;11.50;40.20;;;11.65;43.30;98473.16;5032952;28;19975;-35
2024/01/18 02:32:45;;;;;;;;;;;11.50;40.30;;;11.66;43.63;98475.81;5032723;28;19925;-35
2024/01/18 02:35:13;;;;;;;;;;;11.50;40.40;;;11.70;42.95;98480.34;5032731;28;19933;-36
2024/01/18 02:52:51;;;;;;;;;;;11.50;40.30;;;11.66;43.23;98497.50;5027765;28;19925;-38
2024/01/18 02:55:18;;;;;;;;;;;11.50;40.30;;;11.64;43.58;98498.97;5031618;28;19925;-36
2024/01/18 02:57:46;;;;;;;;;;;11.50;40.20;;;11.65;43.13;98503.25;5033526;28;19928;-39
2024/01/18 03:00:15;;;;;;;;;;;11.50;40.30;;;11.65;43.75;98495.72;5032467;28;19940;-39
2024/01/18 03:02:43;;;;;;;;;;;11.50;40.30;;;11.65;43.21;98505.75;5031952;28;19929;-37
2024/01/18 03:05:12;;;;;;;;;;;11.50;40.30;;;11.65;43.20;98495.72;5032127;28;19932;-37
2024/01/18 03:07:40;;;;;;;;;;;11.50;40.30;;;11.57;43.42;98496.69;5032170;28;19925;-37
2024/01/18 03:10:10;;;;;;;;;;;11.50;40.30;;;11.64;43.23;98509.00;5028478;28;20442;-37
2024/01/18 03:12:39;;;;;;;;;;;11.50;40.30;;;11.64;42.99;98509.00;5032118;28;19932;-37
2024/01/18 03:15:09;;;;;;;;;;;11.50;40.30;;;11.61;43.32;98521.28;5031871;28;19925;-36
2024/01/18 03:17:38;;;;;;;;;;;11.50;40.30;;;11.59;43.57;98507.72;5032519;28;20389;-41
2024/01/18 03:20:08;;;;;;;;;;;11.40;40.30;;;11.57;43.38;98492.53;5031757;28;19936;-40
2024/01/18 03:22:39;;;;;;;;;;;11.40;40.30;;;11.63;43.36;98497.25;5031809;28;19925;-40
2024/01/18 03:25:07;;;;;;;;;;;11.50;40.30;;;11.61;43.72;98491.19;5032188;28;19935;-40
2024/01/18 03:27:36;;;;;;;;;;;11.40;40.20;;;11.60;43.69;98496.94;5032072;28;19925;-39
2024/01/18 03:30:06;;;;;;;;;;;11.40;40.30;;;11.61;43.21;98494.59;5031844;28;19971;-40
2024/01/18 03:32:33;;;;;;;;;;;11.50;40.30;;;11.62;42.90;98490.47;5031443;28;19948;-40
2024/01/18 03:35:02;;;;;;;;;;;11.50;40.30;;;11.62;43.25;98491.34;5031886;28;19925;-40
2024/01/18 03:37:30;;;;;;;;;;;11.50;40.30;;;11.57;43.17;98476.63;5032249;28;19979;-40
2024/01/18 03:39:57;;;;;;;;;;;11.40;40.30;;;11.59;43.21;98485.16;5031705;28;19926;-40
2024/01/18 03:42:25;;;;;;;;;;;11.40;40.30;;;11.60;43.22;98486.91;5031439;28;19929;-39
2024/01/18 03:44:55;;;;;;;;;;;11.40;40.30;;;11.59;43.62;98475.13;5031853;28;20048;-38
2024/01/18 03:47:23;;;;;;;;;;;11.40;40.30;;;11.59;43.18;98485.16;5023787;28;19925;-39
2024/01/18 03:49:51;;;;;;;;;;;11.40;40.30;;;11.62;43.17;98480.44;5031955;28;19929;-40
2024/01/18 03:52:19;;;;;;;;;;;11.40;40.30;;;11.62;43.25;98481.31;5031208;28;19925;-39
2024/01/18 03:54:48;;;;;;;;;;;11.40;40.30;;;11.56;43.32;98469.84;5031785;28;20019;-39
2024/01/18 03:57:16;;;;;;;;;;;11.40;40.30;;;11.56;42.90;98479.88;5031832;28;20296;-39
2024/01/18 03:59:45;;;;;;;;;;;11.40;40.30;;;11.61;43.25;98488.69;5031488;28;19925;-39
2024/01/18 04:02:15;;;;;;;;;;;11.40;40.30;;;11.61;43.48;98483.66;5031180;28;19925;-40
2024/01/18 04:04:42;;;;;;;;;;;11.40;40.30;;;11.61;43.54;98493.69;5031671;28;19925;-39
2024/01/18 04:07:10;;;;;;;;;;;11.40;40.20;;;11.60;43.79;98482.78;5031310;28;20312;-39
2024/01/18 04:09:38;;;;;;;;;;;11.40;40.20;;;11.62;43.23;98485.44;5030418;28;20393;-39
2024/01/18 04:12:07;;;;;;;;;;;11.50;40.30;;;11.61;43.62;98489.56;5028665;28;19925;-40
2024/01/18 04:14:34;;;;;;;;;;;11.50;40.30;;;11.56;43.48;98479.88;5031594;28;19968;-40
2024/01/18 04:17:02;;;;;;;;;;;11.50;40.30;;;11.65;43.27;98495.72;5031298;28;19926;-39
2024/01/18 04:19:32;;;;;;;;;;;11.50;40.30;;;11.66;43.16;98498.38;5031501;28;20036;-39
2024/01/18 04:22:00;;;;;;;;;;;11.50;40.30;;;11.62;43.14;98490.47;5033558;28;20016;-36
2024/01/18 04:24:28;;;;;;;;;;;11.50;40.30;;;11.62;42.74;98496.34;5035072;28;19963;-39
2024/01/18 04:26:55;;;;;;;;;;;11.50;40.30;;;11.64;42.73;98504.00;5035084;28;19929;-39
2024/01/18 04:29:23;;;;;;;;;;;11.50;40.30;;;11.64;43.89;98506.50;5027265;28;19925;-40
2024/01/18 04:31:51;;;;;;;;;;;11.50;40.30;;;11.62;43.44;98496.34;5034774;28;19925;-40
2024/01/18 04:34:19;;;;;;;;;;;11.50;40.30;;;11.63;42.79;98502.25;5035062;28;19933;-40
2024/01/18 04:36:48;;;;;;;;;;;11.50;40.30;;;11.66;42.92;98502.53;5035064;28;19979;-39
2024/01/18 04:39:17;;;;;;;;;;;11.50;40.30;;;11.67;43.47;98504.28;5034476;28;19929;-39
2024/01/18 04:41:45;;;;;;;;;;;11.50;40.30;;;11.65;43.52;98506.66;5034725;28;19955;-39
2024/01/18 04:44:13;;;;;;;;;;;11.50;40.20;;;11.70;43.40;98517.09;5034867;28;19925;-39
2024/01/18 04:46:41;;;;;;;;;;;11.50;40.10;;;11.72;43.13;98528.16;5034946;28;19932;-39
2024/01/18 04:49:09;;;;;;;;;;;11.50;40.10;;;11.69;43.40;98533.81;5034447;28;19929;-39
2024/01/18 04:51:39;;;;;;;;;;;11.50;40.10;;;11.69;43.48;98532.91;5034492;28;19928;-39
2024/01/18 04:54:08;;;;;;;;;;;11.50;40.20;;;11.70;42.74;98544.69;5034651;28;19968;-39
2024/01/18 04:56:37;;;;;;;;;;;11.60;40.20;;;11.69;42.87;98548.84;5035004;28;19935;-39
2024/01/18 04:59:05;;;;;;;;;;;11.50;40.10;;;11.69;42.95;98552.97;5034959;28;19932;-40
2024/01/18 05:01:37;;;;;;;;;;;11.50;40.20;;;11.71;43.17;98553.97;5034585;28;20016;-39
2024/01/18 05:04:05;;;;;;;;;;;11.50;40.10;;;11.65;43.23;98543.38;5034528;28;19972;-40
2024/01/18 05:06:33;;;;;;;;;;;11.50;40.20;;;11.68;43.18;98543.69;5034313;28;19929;-39
2024/01/18 05:09:01;;;;;;;;;;;11.50;40.20;;;11.73;42.86;98560.03;5034421;28;20324;-39
2024/01/18 05:11:31;;;;;;;;;;;11.50;40.10;;;11.70;42.97;98559.72;5030433;28;19936;-39
2024/01/18 05:13:59;;;;;;;;;;;11.60;40.20;;;11.69;43.66;98561.41;5034636;28;19929;-39
2024/01/18 05:16:27;;;;;;;;;;;11.50;40.20;;;11.69;42.97;98568.91;5026278;28;19932;-39
2024/01/18 05:18:54;;;;;;;;;;;11.50;40.20;;;11.70;43.03;98564.75;5034311;28;19925;-40
2024/01/18 05:21:23;;;;;;;;;;;11.50;40.10;;;11.68;42.98;98561.25;5033692;28;20388;-40
2024/01/18 05:23:51;;;;;;;;;;;11.50;40.10;;;11.69;42.58;98568.03;5034353;28;19965;-38
2024/01/18 05:26:19;;;;;;;;;;;11.50;40.20;;;11.68;42.75;98571.28;5034108;28;20377;-38
2024/01/18 05:28:48;;;;;;;;;;;11.50;40.20;;;11.68;42.99;98566.25;5034027;28;20220;-38
2024/01/18 05:31:16;;;;;;;;;;;11.50;40.20;;;11.67;43.07;98574.53;5032888;28;20385;-40
2024/01/18 05:33:44;;;;;;;;;;;11.50;40.10;;;11.68;42.79;98583.81;5034258;28;19925;-39
2024/01/18 05:36:12;;;;;;;;;;;11.50;40.20;;;11.68;42.54;98586.31;5033829;28;19979;-39
2024/01/18 05:38:40;;;;;;;;;;;11.50;40.20;;;11.70;43.56;98579.81;5034076;28;19936;-40
2024/01/18 05:41:09;;;;;;;;;;;11.50;40.20;;;11.69;42.56;98583.09;5033250;28;20014;-40
2024/01/18 05:43:37;;;;;;;;;;;11.50;40.20;;;11.67;43.54;98589.56;5033913;28;19932;-39
2024/01/18 05:46:08;;;;;;;;;;;11.50;40.20;;;11.62;43.58;98589.16;5033445;28;19975;-39
2024/01/18 05:48:36;;;;;;;;;;;11.50;40.20;;;11.68;43.17;98601.38;5033778;28;20011;-39
2024/01/18 05:51:05;;;;;;;;;;;11.50;40.20;;;11.69;42.88;98598.13;5032989;28;20012;-39
2024/01/18 05:53:33;;;;;;;;;;;11.50;40.20;;;11.67;43.10;98607.13;5033566;28;20428;-39
2024/01/18 05:56:01;;;;;;;;;;;11.50;40.30;;;11.66;43.21;98613.78;5033494;28;19925;-39
2024/01/18 05:58:31;;;;;;;;;;;11.50;40.20;;;11.69;42.90;98618.19;5025276;28;19932;-39
2024/01/18 06:01:00;;;;;;;;;;;11.50;40.20;;;11.67;42.90;98620.56;5032817;28;19925;-40
2024/01/18 06:03:30;;;;;;;;;;;11.50;40.20;;;11.66;43.20;98612.88;5033202;28;19931;-40
2024/01/18 06:05:58;;;;;;;;;;;11.50;40.20;;;11.66;43.02;98603.72;5033539;28;19969;-39
2024/01/18 06:08:26;;;;;;;;;;;11.50;40.20;;;11.67;43.07;98614.66;5033082;28;19976;-39
2024/01/18 06:10:55;;;;;;;;;;;11.50;40.20;;;11.66;42.82;98620.41;5028011;28;19929;-40
2024/01/18 06:13:23;;;;;;;;;;;11.50;40.10;;;11.67;43.61;98622.19;5033649;28;19925;-40
2024/01/18 06:15:51;;;;;;;;;;;11.50;40.20;;;11.69;43.01;98623.22;5033264;28;19968;-40
2024/01/18 06:18:19;;;;;;;;;;;11.50;40.20;;;11.69;42.64;98633.25;5033066;28;19925;-40
2024/01/18 06:20:49;;;;;;;;;;;11.50;40.20;;;11.68;42.81;98632.38;5032582;28;20303;-40
2024/01/18 06:23:17;;;;;;;;;;;11.50;40.10;;;11.70;43.52;98645.91;5032808;28;19979;-40
2024/01/18 06:25:44;;;;;;;;;;;11.50;40.10;;;11.71;42.89;98641.78;5033249;28;19931;-39
2024/01/18 06:28:13;;;;;;;;;;;11.50;40.10;;;11.70;43.41;98633.38;5032765;28;19968;-40
2024/01/18 06:30:43;;;;;;;;;;;11.50;40.20;;;11.71;43.17;98636.75;5032074;28;19936;-40
2024/01/18 06:33:12;;;;;;;;;;;11.50;40.20;;;11.69;43.13;98644.16;5032527;28;19948;-38
2024/01/18 06:35:40;;;;;;;;;;;11.50;40.20;;;11.69;42.93;98658.34;5032498;28;19931;-40
2024/01/18 06:38:09;;;;;;;;;;;11.50;40.10;;;11.70;43.14;98662.56;5032412;28;19928;-39
2024/01/18 06:40:37;;;;;;;;;;;11.50;40.10;;;11.63;42.60;98652.75;5032263;28;19925;-40
2024/01/18 06:43:09;;;;;;;;;;;11.50;40.10;;;11.72;43.28;98672.75;5032079;28;19925;-40
2024/01/18 06:45:37;;;;;;;;;;;11.60;40.30;;;11.69;43.63;98678.41;5032388;28;20341;-40
2024/01/18 06:48:05;;;;;;;;;;;11.60;40.20;;;11.71;43.53;98676.91;5032388;28;19925;-40
2024/01/18 06:50:33;;;;;;;;;;;11.50;40.10;;;11.52;43.15;98648.31;5024683;28;19991;-40
2024/01/18 06:53:03;;;;;;;;;;;11.50;40.80;;;11.69;43.43;98693.44;5033497;28;20272;-40
2024/01/18 06:55:32;;;;;;;;;;;11.50;40.10;;;11.68;43.65;98699.19;5032796;28;19925;-39
2024/01/18 06:58:02;;;;;;;;;;;11.50;40.20;;;11.69;43.50;98693.44;5033424;28;19925;-39
2024/01/18 07:00:31;;;;;;;;;;;11.50;40.20;;;11.69;43.03;98693.44;5031848;28;20019;-39
2024/01/18 07:02:59;;;;;;;;;;;11.50;40.20;;;11.67;43.24;98699.94;5032108;28;20007;-38
2024/01/18 07:05:28;;;;;;;;;;;11.50;40.10;;;11.59;43.00;98685.78;5032171;28;19937;-39
2024/01/18 07:07:56;;;;;;;;;;;11.50;40.20;;;11.64;42.83;98699.63;5034172;28;19932;-36
2024/01/18 07:10:24;;;;;;;;;;;11.50;40.20;;;11.67;42.87;98712.47;5042638;22;19970;-34
2024/01/18 07:12:53;;;;;;;;;;;11.50;40.20;;;11.68;43.46;98711.75;5031595;28;19932;-35
2024/01/18 07:15:21;;;;;;;;;;;11.50;40.20;;;11.68;43.08;98710.13;5031773;28;19929;-35
2024/01/18 07:17:49;;;;;;;;;;;11.50;40.20;;;11.66;42.98;98714.09;5031775;28;20392;-34
2024/01/18 07:20:17;;;;;;;;;;;11.50;40.20;;;11.68;43.04;98722.66;5032036;28;20007;-35
2024/01/18 07:22:45;;;;;;;;;;;11.50;40.20;;;11.67;43.16;98740.06;5031398;28;19952;-35
2024/01/18 07:25:13;;;;;;;;;;;11.50;40.20;;;11.65;42.55;98739.03;5031888;28;19935;-35
2024/01/18 07:27:41;;;;;;;;;;;11.50;40.80;;;11.68;43.47;98746.88;5031827;28;19948;-35
2024/01/18 07:30:14;;;;;;;;;;;11.50;40.20;;;11.65;43.04;98734.00;5031481;28;19968;-35
2024/01/18 07:32:44;;;;;;;;;;;11.50;40.30;;;11.66;42.78;98733.28;5031126;28;20384;-35
2024/01/18 07:35:12;;;;;;;;;;;11.50;40.20;;;11.63;42.98;98733.84;5031772;28;19929;-35
2024/01/18 07:37:40;;;;;;;;;;;11.50;40.20;;;11.66;43.58;98743.31;5031623;28;20299;-35
2024/01/18 07:40:08;;;;;;;;;;;11.50;40.20;;;11.69;43.51;98753.66;5031575;28;19932;-35
2024/01/18 07:42:36;;;;;;;;;;;11.50;40.10;;;11.70;42.44;98751.25;5030837;28;19932;-35
2024/01/18 07:45:11;;;;;;;;;;;11.50;40.10;;;11.71;42.97;98752.16;5031988;28;20308;-35
2024/01/18 07:47:40;;;;;;;;;;;11.60;40.20;;;11.69;42.86;98753.66;5031718;28;19933;-34
2024/01/18 07:50:09;;;;;;;;;;;11.50;40.10;;;11.69;43.05;98758.66;5031608;28;19968;-35
2024/01/18 07:52:57;;;;;;;;;;;11.50;40.10;;;11.68;43.35;98761.91;5026350;28;19979;-35
2024/01/18 07:55:25;;;;;;;;;;;11.50;40.10;;;11.68;43.01;98781.97;5033724;28;19972;-35
2024/01/18 07:57:53;;;;;;;;;;;11.50;40.10;;;11.70;43.08;98780.47;5035953;28;20300;-34
2024/01/18 08:00:21;;;;;;;;;;;11.50;40.10;;;11.71;42.73;98777.25;5035339;28;20024;-35
2024/01/18 08:02:51;;;;;;;;;;;11.50;40.10;;;11.71;42.94;98777.25;5034923;28;19932;-34
2024/01/18 08:05:19;;;;;;;;;;;11.60;40.10;;;11.69;43.07;98789.66;5035692;28;19925;-34
2024/01/18 08:07:47;;;;;;;;;;;11.50;40.10;;;11.70;43.29;98775.47;5035278;28;20377;-34
2024/01/18 08:10:14;;;;;;;;;;;11.50;40.10;;;11.70;42.85;98775.47;5035100;28;19932;-34
2024/01/18 08:12:43;;;;;;;;;;;11.50;40.10;;;11.72;42.57;98786.53;5034911;28;19932;-35
2024/01/18 08:15:12;;;;;;;;;;;11.60;40.20;;;11.71;42.94;98782.25;5035334;28;19925;-35
2024/01/18 08:17:40;;;;;;;;;;;11.50;40.10;;;11.73;42.71;98789.94;5035231;28;19925;-37
2024/01/18 08:20:12;;;;;;;;;;;11.60;40.20;;;11.73;43.12;98790.81;5035078;28;19931;-35
2024/01/18 08:22:41;;;;;;;;;;;11.60;40.20;;;11.69;42.79;98791.28;5034667;28;19976;-34
2024/01/18 08:25:10;;;;;;;;;;;11.50;40.00;;;11.71;43.46;98794.81;5035849;28;19925;-35
2024/01/18 08:27:39;;;;;;;;;;;11.50;40.00;;;11.70;43.36;98800.56;5035289;28;19929;-35
2024/01/18 08:30:07;;;;;;;;;;;11.60;40.20;;;11.69;43.28;98803.81;5034884;28;19972;-35
2024/01/18 08:32:35;;;;;;;;;;;11.50;40.10;;;11.71;42.79;98797.31;5034100;28;19929;-34
2024/01/18 08:35:06;;;;;;;;;;;11.60;40.10;;;11.71;43.39;98802.31;5035191;28;19929;-35
2024/01/18 08:37:37;;;;;;;;;;;11.60;40.10;;;11.71;43.02;98807.34;5034674;28;20389;-35
2024/01/18 08:40:06;;;;;;;;;;;11.60;40.10;;;11.68;43.08;98812.09;5034971;28;20012;-35
2024/01/18 08:42:34;;;;;;;;;;;11.50;40.10;;;11.71;42.95;98812.34;5034127;28;19947;-34
2024/01/18 08:45:02;;;;;;;;;;;11.50;40.10;;;11.69;42.97;98818.88;5034549;28;20304;-35
2024/01/18 08:47:30;;;;;;;;;;;11.60;40.20;;;11.66;43.18;98823.59;5034794;28;19983;-34
2024/01/18 08:49:58;;;;;;;;;;;11.50;40.10;;;11.67;42.94;98830.38;5034579;28;20388;-35
2024/01/18 08:52:26;;;;;;;;;;;11.50;40.10;;;11.67;43.25;98840.41;5034401;28;19929;-34
2024/01/18 08:54:55;;;;;;;;;;;11.50;40.10;;;11.66;43.29;98848.66;5034608;28;19979;-34
2024/01/18 08:57:23;;;;;;;;;;;11.50;40.10;;;11.66;43.82;98839.53;5034488;28;19925;-35
2024/01/18 08:59:51;;;;;;;;;;;11.50;40.10;;;11.68;43.26;98847.19;5034564;28;19929;-35
2024/01/18 09:02:19;;;;;;;;;;;11.50;40.10;;;11.67;42.50;98855.47;5034225;28;19925;-35
2024/01/18 09:04:51;;;;;;;;;;;11.50;40.10;;;11.68;42.96;98853.09;5034536;28;20438;-35
2024/01/18 09:07:20;;;;;;;;;;;11.50;40.10;;;11.73;42.57;98866.09;5033700;28;19925;-36
2024/01/18 09:09:48;;;;;;;;;;;11.60;40.20;;;11.72;43.14;98856.78;5034145;28;20008;-35
2024/01/18 09:12:17;;;;;;;;;;;11.60;40.20;;;11.73;42.87;98856.06;5031586;28;19944;-37
2024/01/18 09:14:45;;;;;;;;;;;11.60;40.20;;;11.76;42.46;98861.38;5034560;28;19927;-37
2024/01/18 09:17:13;;;;;;;;;;;11.60;40.10;;;11.79;42.96;98860.81;5034379;28;19925;-34
2024/01/18 09:19:43;;;;;;;;;;;11.60;40.20;;;11.78;43.57;98867.44;5026391;28;20019;-37
2024/01/18 09:22:11;;;;;;;;;;;11.60;40.20;;;11.85;42.56;98874.81;5033940;28;19932;-37
2024/01/18 09:24:39;;;;;;;;;;;11.60;40.10;;;11.85;43.09;98877.34;5034418;28;19952;-34
2024/01/18 09:27:07;;;;;;;;;;;11.70;40.20;;;11.87;42.70;98880.00;5034311;28;20016;-37
2024/01/18 09:29:36;;;;;;;;;;;11.70;40.20;;;11.88;42.46;98886.78;5033635;28;20016;-35
2024/01/18 09:32:06;;;;;;;;;;;11.70;40.20;;;11.88;42.56;98890.19;5033527;28;19932;-35
2024/01/18 09:34:34;;;;;;;;;;;11.70;40.20;;;11.90;43.07;98896.22;5033784;28;20400;-35
2024/01/18 09:37:03;;;;;;;;;;;11.70;40.10;;;11.90;42.96;98903.75;5033780;28;19925;-37
2024/01/18 09:39:31;;;;;;;;;;;11.70;40.10;;;11.90;42.98;98911.28;5033982;28;20019;-36
2024/01/18 09:42:01;;;;;;;;;;;11.70;40.10;;;11.92;42.60;98919.84;5033318;28;20015;-37
2024/01/18 09:44:30;;;;;;;;;;;11.80;40.20;;;11.94;43.32;98923.41;5033777;28;19967;-36
2024/01/18 09:47:01;;;;;;;;;;;11.80;40.20;;;11.95;42.84;98925.16;5033653;28;19972;-36
2024/01/18 09:49:29;;;;;;;;;;;11.80;40.20;;;11.94;42.78;98925.91;5033331;28;19925;-36
2024/01/18 09:51:59;;;;;;;;;;;11.80;40.20;;;11.93;42.72;98924.13;5033195;28;20224;-36
2024/01/18 09:54:27;;;;;;;;;;;11.80;40.20;;;11.93;43.12;98929.16;5033519;28;19929;-36
2024/01/18 09:57:00;;;;;;;;;;;11.80;40.20;;;11.96;42.73;98931.94;5033577;28;19925;-37
2024/01/18 09:59:28;;;;;;;;;;;11.80;40.20;;;11.94;43.37;98935.94;5033439;28;19971;-37
2024/01/18 10:01:56;;;;;;;;;;;11.80;40.20;;;11.93;43.16;98936.69;5032758;28;20480;-37
2024/01/18 10:04:27;;;;;;;;;;;11.80;40.30;;;11.96;42.89;98936.97;5033374;28;19925;-35
2024/01/18 10:06:55;;;;;;;;;;;11.80;40.30;;;11.93;43.08;98948.34;5033055;28;20308;-35
2024/01/18 10:09:26;;;;;;;;;;;11.80;40.30;;;11.93;43.12;98950.84;5033241;28;20066;-35
2024/01/18 10:11:55;;;;;;;;;;;11.80;40.30;;;11.96;43.53;98956.16;5032540;28;19978;-35
2024/01/18 10:14:39;;;;;;;;;;;11.80;40.30;;;11.94;42.81;98957.66;5033013;28;20036;-36
2024/01/18 10:17:07;;;;;;;;;;;11.80;40.30;;;11.93;43.67;98961.78;5033448;28;19975;-36
2024/01/18 10:19:36;;;;;;;;;;;11.80;40.40;;;11.95;42.76;98961.94;5032333;28;19947;-36
2024/01/18 10:22:05;;;;;;;;;;;11.80;40.30;;;11.96;42.54;98977.13;5032506;28;19925;-36
2024/01/18 10:24:33;;;;;;;;;;;11.80;40.30;;;11.93;43.78;98974.34;5033014;28;19934;-37
2024/01/18 10:27:04;;;;;;;;;;;11.80;40.30;;;11.94;42.79;98976.09;5033057;28;19925;-36
2024/01/18 10:29:35;;;;;;;;;;;11.80;40.30;;;11.95;43.20;98980.38;5032818;28;19940;-36
2024/01/18 10:32:03;;;;;;;;;;;11.80;40.30;;;11.95;43.01;98977.84;5031981;28;20442;-36
2024/01/18 10:34:36;;;;;;;;;;;11.80;40.30;;;11.95;42.83;98982.00;5032535;28;20431;-37
2024/01/18 10:37:04;;;;;;;;;;;11.80;40.30;;;11.97;43.62;98988.94;5033060;28;19958;-34
2024/01/18 10:39:39;;;;;;;;;;;11.80;40.30;;;11.98;43.05;98990.72;5032480;28;19999;-36
2024/01/18 10:42:08;;;;;;;;;;;11.80;40.40;;;11.97;43.05;98993.97;5032140;28;19925;-36
2024/01/18 10:44:39;;;;;;;;;;;11.80;40.30;;;11.97;42.81;98998.09;5032711;28;19964;-36
2024/01/18 10:47:10;;;;;;;;;;;11.80;40.40;;;11.99;42.90;99002.53;5033069;28;19932;-36
2024/01/18 10:49:41;;;;;;;;;;;11.80;40.40;;;11.99;43.43;99007.56;5032699;28;19963;-36
2024/01/18 10:52:09;;;;;;;;;;;11.80;40.40;;;11.99;43.04;99011.69;5031765;28;20023;-37
2024/01/18 10:54:37;;;;;;;;;;;11.80;40.40;;;11.99;43.36;99007.56;5032566;28;19989;-36
2024/01/18 10:57:17;;;;;;;;;;;11.80;40.40;;;12.00;43.25;99009.34;5032560;28;19925;-37
2024/01/18 10:59:45;;;;;;;;;;;11.80;40.30;;;12.01;43.55;99011.06;5032970;28;19929;-36
2024/01/18 11:02:12;;;;;;;;;;;11.90;40.40;;;12.02;43.10;99017.88;5032236;28;19925;-35
2024/01/18 11:04:42;;;;;;;;;;;11.90;40.30;;;12.03;43.08;99014.63;5032142;28;19933;-36
2024/01/18 11:07:10;;;;;;;;;;;11.90;40.30;;;12.05;43.14;99018.19;5032645;28;19925;-35
2024/01/18 11:09:39;;;;;;;;;;;11.90;40.40;;;12.07;43.12;99026.78;5032912;28;19929;-35
2024/01/18 11:12:07;;;;;;;;;;;11.90;40.30;;;12.01;43.33;99023.63;5031669;28;20020;-36
2024/01/18 11:14:36;;;;;;;;;;;11.90;40.30;;;12.05;42.45;99033.25;5031987;28;20039;-36
2024/01/18 11:17:07;;;;;;;;;;;11.90;40.30;;;12.07;43.22;99036.81;5031907;28;20341;-36
2024/01/18 11:19:46;;;;;;;;;;;11.90;40.30;;;12.10;43.04;99036.19;5032726;28;19931;-36
2024/01/18 11:22:23;;;;;;;;;;;11.90;41.00;;;12.12;43.29;99043.88;5031743;28;20392;-36
2024/01/18 11:24:51;;;;;;;;;;;11.90;40.30;;;12.09;43.25;99049.47;5024517;28;20099;-36
2024/01/18 11:27:19;;;;;;;;;;;11.90;40.30;;;12.08;43.05;99041.06;5032579;28;19939;-36
2024/01/18 11:29:49;;;;;;;;;;;11.90;40.30;;;12.11;42.81;99057.19;5031741;28;19933;-36
2024/01/18 11:32:18;;;;;;;;;;;11.90;40.30;;;12.11;43.08;99052.16;5031657;28;19969;-37
2024/01/18 11:34:49;;;;;;;;;;;12.00;40.40;;;12.09;42.98;99055.41;5032123;28;19964;-36
2024/01/18 11:37:18;;;;;;;;;;;11.90;40.30;;;12.09;42.88;99055.41;5032094;28;19948;-36
2024/01/18 11:39:56;;;;;;;;;;;12.00;40.40;;;12.12;42.48;99058.94;5031924;28;19983;-36